Time;durP1;ratioP1;P1;durP2;ratioP2;P2;SDS_P1;SDS_P2;PMS_P1;PMS_P2;Temp;Humidity;BMP_temperature;BMP_pressure;BME280_temperature;BME280_humidity;BME280_pressure;Samples;Min_cycle;Max_cycle;Signal;HPM_P1;HPM_P2
2022/08/13 00:02:18;;;;;;;2.55;0.57;;;;;;;;;;5064503;28;20031;-65
2022/08/13 00:04:59;;;;;;;3.35;0.70;;;;;;;;;;5072109;28;20028;-65
2022/08/13 00:07:24;;;;;;;0.75;0.60;;;;;;;;;;5064453;28;20031;-65
2022/08/13 00:09:50;;;;;;;4.55;0.93;;;;;;;;;;5069215;28;20073;-65
2022/08/13 00:15:10;;;;;;;9.20;1.00;;;;;;;;;;5072220;28;20041;-65
2022/08/13 00:17:37;;;;;;;4.70;0.82;;;;;;;;;;5072815;28;20016;-65
2022/08/13 00:20:03;;;;;;;3.28;0.77;;;;;;;;;;5077292;28;20147;-65
2022/08/13 00:22:28;;;;;;;6.20;1.10;;;;;;;;;;5071603;28;20047;-65
2022/08/13 00:24:55;;;;;;;5.97;0.93;;;;;;;;;;5070414;28;20024;-65
2022/08/13 00:27:22;;;;;;;3.83;0.95;;;;;;;;;;5072629;28;20055;-65
2022/08/13 00:29:48;;;;;;;1.27;0.50;;;;;;;;;;5073036;28;20028;-65
2022/08/13 00:32:16;;;;;;;4.50;0.90;;;;;;;;;;5061445;28;20048;-65
2022/08/13 00:34:41;;;;;;;6.82;0.88;;;;;;;;;;5069576;28;20020;-65
2022/08/13 00:37:09;;;;;;;1.00;0.60;;;;;;;;;;5062488;28;20024;-65
2022/08/13 00:39:34;;;;;;;2.60;0.90;;;;;;;;;;5073119;28;20043;-65
2022/08/13 00:41:59;;;;;;;4.20;0.90;;;;;;;;;;5067217;28;20114;-65
2022/08/13 00:44:25;;;;;;;10.67;1.67;;;;;;;;;;5075125;28;20455;-65
2022/08/13 00:48:41;;;;;;;8.77;1.20;;;;;;;;;;5058901;28;20031;-65
2022/08/13 00:49:35;;;;;;;2.42;0.88;;;;;;;;;;5065078;28;20058;-65
2022/08/13 00:52:01;;;;;;;6.03;1.00;;;;;;;;;;5060201;28;20056;-65
2022/08/13 00:54:26;;;;;;;2.25;1.00;;;;;;;;;;5069805;28;20020;-65
2022/08/13 00:56:52;;;;;;;5.70;1.10;;;;;;;;;;5060965;28;20797;-65
2022/08/13 00:59:17;;;;;;;4.68;0.90;;;;;;;;;;5062558;28;20035;-65
2022/08/13 01:01:44;;;;;;;4.40;1.30;;;;;;;;;;5067540;28;20035;-65
2022/08/13 01:04:09;;;;;;;5.22;1.02;;;;;;;;;;5074619;28;20282;-65
2022/08/13 01:06:35;;;;;;;5.43;2.00;;;;;;;;;;5063534;28;20027;-65
2022/08/13 01:09:01;;;;;;;2.47;1.00;;;;;;;;;;5074806;28;20033;-66
2022/08/13 01:11:27;;;;;;;4.38;0.90;;;;;;;;;;5068166;28;20020;-65
2022/08/13 01:13:52;;;;;;;1.15;0.88;;;;;;;;;;5070486;28;20024;-65
2022/08/13 01:16:18;;;;;;;2.05;0.75;;;;;;;;;;5065116;28;20469;-65
2022/08/13 01:18:45;;;;;;;2.03;1.10;;;;;;;;;;5070686;28;20036;-65
2022/08/13 01:21:15;;;;;;;7.53;1.10;;;;;;;;;;5067105;28;20032;-65
2022/08/13 01:23:45;;;;;;;4.63;1.40;;;;;;;;;;5077575;28;20024;-65
2022/08/13 01:26:11;;;;;;;1.15;1.00;;;;;;;;;;5064285;28;20029;-65
2022/08/13 01:28:38;;;;;;;1.83;1.20;;;;;;;;;;5070730;28;20443;-65
2022/08/13 01:31:05;;;;;;;3.92;1.50;;;;;;;;;;5061657;28;20040;-65
2022/08/13 01:33:34;;;;;;;3.20;1.60;;;;;;;;;;5071076;28;20016;-65
2022/08/13 01:36:00;;;;;;;1.30;0.73;;;;;;;;;;5071286;28;20085;-65
2022/08/13 01:38:26;;;;;;;2.42;1.80;;;;;;;;;;5076718;28;20501;-65
2022/08/13 01:40:52;;;;;;;8.80;1.15;;;;;;;;;;5072318;28;20028;-65
2022/08/13 01:43:18;;;;;;;4.00;1.40;;;;;;;;;;5075472;28;20042;-65
2022/08/13 01:45:43;;;;;;;6.20;1.40;;;;;;;;;;5063129;28;20531;-65
2022/08/13 01:50:53;;;;;;;3.22;1.17;;;;;;;;;;5052870;28;20440;-65
2022/08/13 01:53:18;;;;;;;3.17;0.87;;;;;;;;;;5075125;28;20067;-65
2022/08/13 01:55:44;;;;;;;12.30;1.38;;;;;;;;;;5063232;28;20271;-65
2022/08/13 01:58:13;;;;;;;2.20;1.10;;;;;;;;;;5059055;28;20040;-65
2022/08/13 02:00:41;;;;;;;3.75;1.35;;;;;;;;;;5078073;28;20512;-65
2022/08/13 02:03:09;;;;;;;2.17;0.90;;;;;;;;;;5067001;28;20028;-65
2022/08/13 02:05:38;;;;;;;4.72;1.23;;;;;;;;;;5071380;28;20024;-65
2022/08/13 02:08:03;;;;;;;3.00;1.23;;;;;;;;;;5070659;28;20070;-65
2022/08/13 02:10:28;;;;;;;1.52;1.08;;;;;;;;;;5067001;28;20028;-65
2022/08/13 02:12:54;;;;;;;3.42;1.58;;;;;;;;;;5063307;28;20021;-65
2022/08/13 02:15:19;;;;;;;2.92;1.33;;;;;;;;;;5075180;28;20032;-65
2022/08/13 02:17:45;;;;;;;4.93;1.53;;;;;;;;;;5072064;28;20107;-65
2022/08/13 02:20:17;;;;;;;7.55;1.45;;;;;;;;;;5072723;28;20296;-65
2022/08/13 02:22:45;;;;;;;2.10;1.33;;;;;;;;;;5074304;28;20023;-65
2022/08/13 02:25:12;;;;;;;4.68;1.20;;;;;;;;;;5064431;28;20047;-65
2022/08/13 02:27:38;;;;;;;5.10;1.30;;;;;;;;;;5065460;28;20032;-65
2022/08/13 02:30:04;;;;;;;3.05;1.27;;;;;;;;;;5058120;28;20051;-65
2022/08/13 02:32:29;;;;;;;6.40;0.90;;;;;;;;;;5063792;28;20052;-65
2022/08/13 02:34:54;;;;;;;3.53;1.37;;;;;;;;;;5071080;28;20073;-65
2022/08/13 02:37:21;;;;;;;4.00;1.48;;;;;;;;;;5061414;28;20294;-65
2022/08/13 02:39:49;;;;;;;1.92;1.15;;;;;;;;;;5061006;28;20026;-65
2022/08/13 02:42:15;;;;;;;10.38;1.70;;;;;;;;;;5062223;28;20035;-65
2022/08/13 02:44:42;;;;;;;5.00;1.45;;;;;;;;;;5059251;28;20020;-65
2022/08/13 02:47:07;;;;;;;3.08;1.30;;;;;;;;;;5062191;28;20053;-65
2022/08/13 02:49:36;;;;;;;4.22;1.45;;;;;;;;;;5071703;28;20086;-65
2022/08/13 02:52:03;;;;;;;4.93;1.60;;;;;;;;;;5068399;28;20028;-65
2022/08/13 02:54:30;;;;;;;2.40;1.20;;;;;;;;;;5065973;28;20016;-65
2022/08/13 02:56:55;;;;;;;5.78;1.35;;;;;;;;;;5071510;28;20992;-65
2022/08/13 02:59:21;;;;;;;3.83;1.20;;;;;;;;;;5069592;28;20020;-65
2022/08/13 03:01:46;;;;;;;1.85;1.17;;;;;;;;;;5069832;28;20267;-65
2022/08/13 03:04:14;;;;;;;7.20;1.63;;;;;;;;;;5071881;28;20433;-65
2022/08/13 03:06:40;;;;;;;12.65;2.33;;;;;;;;;;5072596;28;20389;-65
2022/08/13 03:09:05;;;;;;;3.33;1.13;;;;;;;;;;5064099;28;20021;-65
2022/08/13 03:11:32;;;;;;;3.13;1.40;;;;;;;;;;5060452;28;20295;-65
2022/08/13 03:14:01;;;;;;;2.92;1.35;;;;;;;;;;5064635;28;20106;-65
2022/08/13 03:16:27;;;;;;;3.05;1.45;;;;;;;;;;5071685;28;20524;-65
2022/08/13 03:18:53;;;;;;;5.45;1.90;;;;;;;;;;5063717;28;20042;-65
2022/08/13 03:21:19;;;;;;;6.68;1.88;;;;;;;;;;5067337;28;20025;-65
2022/08/13 03:23:46;;;;;;;2.85;1.50;;;;;;;;;;5063346;28;20040;-65
2022/08/13 03:26:11;;;;;;;7.32;1.80;;;;;;;;;;5071400;28;20013;-65
2022/08/13 03:28:37;;;;;;;2.67;1.40;;;;;;;;;;5061744;28;20108;-65
2022/08/13 03:31:03;;;;;;;4.35;1.63;;;;;;;;;;5067566;28;20077;-65
2022/08/13 03:33:28;;;;;;;3.08;1.45;;;;;;;;;;5070054;28;20372;-65
2022/08/13 03:35:53;;;;;;;7.28;1.50;;;;;;;;;;5068720;28;20095;-65
2022/08/13 03:38:18;;;;;;;4.90;1.37;;;;;;;;;;5059222;28;20477;-65
2022/08/13 03:41:02;;;;;;;2.77;1.80;;;;;;;;;;5076770;28;20317;-65
2022/08/13 03:43:28;;;;;;;1.70;1.30;;;;;;;;;;5063900;28;20024;-65
2022/08/13 03:45:54;;;;;;;5.43;1.60;;;;;;;;;;5071722;28;20516;-65
2022/08/13 03:48:20;;;;;;;2.92;1.60;;;;;;;;;;5066986;28;20035;-65
2022/08/13 03:50:46;;;;;;;5.00;1.27;;;;;;;;;;5061983;28;20028;-65
2022/08/13 03:53:12;;;;;;;7.80;1.42;;;;;;;;;;5064025;28;20100;-65
2022/08/13 03:55:39;;;;;;;2.55;1.20;;;;;;;;;;5061813;28;20107;-65
2022/08/13 03:58:05;;;;;;;1.73;1.42;;;;;;;;;;5062421;28;20051;-65
2022/08/13 04:00:31;;;;;;;8.45;1.80;;;;;;;;;;5066482;28;20056;-65
2022/08/13 04:02:57;;;;;;;3.13;1.50;;;;;;;;;;5067483;28;20016;-65
2022/08/13 04:05:22;;;;;;;6.97;1.83;;;;;;;;;;5060108;28;20028;-65
2022/08/13 04:07:50;;;;;;;6.75;1.50;;;;;;;;;;5058171;28;20378;-65
2022/08/13 04:10:16;;;;;;;6.50;1.55;;;;;;;;;;5061569;28;20039;-65
2022/08/13 04:12:41;;;;;;;2.70;1.48;;;;;;;;;;5055108;28;20036;-65
2022/08/13 04:15:07;;;;;;;5.90;1.53;;;;;;;;;;5072066;28;20024;-65
2022/08/13 04:17:36;;;;;;;2.00;1.33;;;;;;;;;;5068320;28;20631;-65
2022/08/13 04:20:03;;;;;;;3.38;1.83;;;;;;;;;;5074535;28;20025;-65
2022/08/13 04:22:28;;;;;;;9.13;1.50;;;;;;;;;;5062640;28;20074;-65
2022/08/13 04:24:53;;;;;;;3.55;1.38;;;;;;;;;;5061490;28;20617;-65
2022/08/13 04:27:18;;;;;;;3.03;1.60;;;;;;;;;;5063645;28;20052;-65
2022/08/13 04:29:44;;;;;;;3.75;2.33;;;;;;;;;;5067289;28;20035;-65
2022/08/13 04:32:09;;;;;;;2.70;1.43;;;;;;;;;;5053039;28;20071;-65
2022/08/13 04:34:34;;;;;;;4.63;1.93;;;;;;;;;;5062295;28;20728;-65
2022/08/13 04:37:01;;;;;;;7.97;1.50;;;;;;;;;;5059606;28;20305;-65
2022/08/13 04:39:26;;;;;;;5.10;1.48;;;;;;;;;;5067310;28;20020;-65
2022/08/13 04:41:51;;;;;;;4.25;1.45;;;;;;;;;;5061805;28;20020;-65
2022/08/13 04:44:17;;;;;;;3.07;1.77;;;;;;;;;;5069190;28;20028;-65
2022/08/13 04:46:42;;;;;;;5.43;2.40;;;;;;;;;;5064672;28;20751;-65
2022/08/13 04:49:10;;;;;;;10.80;1.75;;;;;;;;;;5071070;28;20263;-65
2022/08/13 04:51:35;;;;;;;5.10;2.00;;;;;;;;;;5061892;28;20043;-65
2022/08/13 04:54:00;;;;;;;10.95;2.25;;;;;;;;;;5063430;28;20464;-65
2022/08/13 04:56:26;;;;;;;6.45;2.00;;;;;;;;;;5067711;28;20385;-65
2022/08/13 04:58:51;;;;;;;7.32;1.98;;;;;;;;;;5072164;28;20490;-65
2022/08/13 05:01:16;;;;;;;3.85;2.03;;;;;;;;;;5041346;28;20029;-65
2022/08/13 05:03:42;;;;;;;14.73;2.53;;;;;;;;;;5056680;28;20024;-65
2022/08/13 05:06:11;;;;;;;6.15;1.92;;;;;;;;;;5066875;28;20269;-65
2022/08/13 05:08:39;;;;;;;14.95;2.30;;;;;;;;;;5067970;28;20031;-65
2022/08/13 05:11:04;;;;;;;7.93;1.95;;;;;;;;;;5066074;28;20047;-65
2022/08/13 05:13:31;;;;;;;5.60;2.10;;;;;;;;;;5062438;28;20444;-65
2022/08/13 05:15:57;;;;;;;3.65;1.92;;;;;;;;;;5062891;28;20466;-65
2022/08/13 05:18:23;;;;;;;6.82;1.80;;;;;;;;;;5068277;28;20426;-65
2022/08/13 05:20:49;;;;;;;13.02;2.08;;;;;;;;;;5063223;28;20028;-65
2022/08/13 05:23:14;;;;;;;3.25;1.95;;;;;;;;;;5067906;28;20020;-65
2022/08/13 05:25:43;;;;;;;3.75;2.03;;;;;;;;;;5064828;28;20393;-65
2022/08/13 05:28:08;;;;;;;5.68;1.70;;;;;;;;;;5065005;28;20040;-65
2022/08/13 05:30:37;;;;;;;8.90;1.73;;;;;;;;;;5066204;28;20024;-65
2022/08/13 05:33:10;;;;;;;7.22;1.95;;;;;;;;;;5057016;28;20551;-65
2022/08/13 05:35:37;;;;;;;3.92;1.67;;;;;;;;;;5066700;28;20949;-65
2022/08/13 05:38:02;;;;;;;6.18;2.22;;;;;;;;;;5066059;28;20051;-65
2022/08/13 05:40:28;;;;;;;3.60;1.90;;;;;;;;;;5068612;28;20497;-65
2022/08/13 05:42:56;;;;;;;3.43;1.97;;;;;;;;;;5061266;28;20386;-65
2022/08/13 05:45:21;;;;;;;3.85;2.03;;;;;;;;;;5067368;28;20275;-65
2022/08/13 05:47:50;;;;;;;6.78;1.77;;;;;;;;;;5067831;28;20027;-65
2022/08/13 05:50:15;;;;;;;4.03;2.00;;;;;;;;;;5064736;28;20018;-65
2022/08/13 05:52:41;;;;;;;3.95;1.77;;;;;;;;;;5064499;28;20020;-65
2022/08/13 05:55:06;;;;;;;10.50;1.95;;;;;;;;;;5048683;28;20021;-65
2022/08/13 05:57:32;;;;;;;2.83;1.77;;;;;;;;;;5074120;28;20021;-65
2022/08/13 06:05:24;;;;;;;5.10;2.33;;;;;;;;;;5065868;28;20039;-65
2022/08/13 06:07:52;;;;;;;3.47;1.93;;;;;;;;;;5061590;28;20021;-65
2022/08/13 06:10:18;;;;;;;3.83;2.03;;;;;;;;;;5069932;28;20051;-65
2022/08/13 06:12:43;;;;;;;5.65;2.10;;;;;;;;;;5070675;28;20018;-65
2022/08/13 06:15:10;;;;;;;5.20;1.97;;;;;;;;;;5069207;28;20107;-65
2022/08/13 06:17:36;;;;;;;7.80;2.85;;;;;;;;;;5072279;28;20271;-65
2022/08/13 06:20:03;;;;;;;3.47;1.70;;;;;;;;;;5055181;28;20020;-65
2022/08/13 06:22:28;;;;;;;7.50;1.90;;;;;;;;;;5069110;28;20063;-65
2022/08/13 06:24:53;;;;;;;3.67;1.70;;;;;;;;;;5075105;28;20044;-65
2022/08/13 06:27:19;;;;;;;4.73;1.80;;;;;;;;;;5067912;28;20029;-65
2022/08/13 06:29:45;;;;;;;10.02;2.05;;;;;;;;;;5066496;28;20103;-65
2022/08/13 06:32:11;;;;;;;4.22;2.30;;;;;;;;;;5070231;28;20028;-65
2022/08/13 06:34:36;;;;;;;3.65;1.80;;;;;;;;;;5064710;28;20021;-65
2022/08/13 06:37:03;;;;;;;5.20;1.83;;;;;;;;;;5072888;28;20029;-65
2022/08/13 06:39:29;;;;;;;2.65;1.80;;;;;;;;;;5071574;28;20275;-65
2022/08/13 06:41:55;;;;;;;10.63;2.45;;;;;;;;;;5061606;28;20051;-65
2022/08/13 06:44:20;;;;;;;3.17;1.77;;;;;;;;;;5070203;28;20489;-65
2022/08/13 06:46:46;;;;;;;4.68;1.75;;;;;;;;;;5057268;28;20060;-65
2022/08/13 06:49:11;;;;;;;4.72;1.80;;;;;;;;;;5062086;28;20119;-65
2022/08/13 06:51:37;;;;;;;8.27;1.83;;;;;;;;;;5071253;28;20028;-65
2022/08/13 06:54:03;;;;;;;4.53;1.80;;;;;;;;;;5063423;28;20267;-65
2022/08/13 06:56:28;;;;;;;2.75;1.70;;;;;;;;;;5062460;28;20025;-65
2022/08/13 06:58:54;;;;;;;8.18;2.10;;;;;;;;;;5068190;28;20016;-65
2022/08/13 07:01:21;;;;;;;5.10;2.40;;;;;;;;;;5071090;28;20028;-65
2022/08/13 07:03:47;;;;;;;7.15;1.95;;;;;;;;;;5070704;28;20602;-65
2022/08/13 07:06:16;;;;;;;7.10;2.05;;;;;;;;;;5064333;28;20107;-65
2022/08/13 07:08:42;;;;;;;8.63;1.75;;;;;;;;;;5072494;28;20016;-65
2022/08/13 07:11:22;;;;;;;3.95;1.65;;;;;;;;;;5045593;28;20059;-65
2022/08/13 07:13:49;;;;;;;6.75;1.70;;;;;;;;;;5068479;28;20108;-65
2022/08/13 07:16:16;;;;;;;14.07;3.33;;;;;;;;;;5071535;28;20028;-65
2022/08/13 07:18:41;;;;;;;8.27;1.70;;;;;;;;;;5065341;28;20023;-66
2022/08/13 07:21:10;;;;;;;6.28;2.00;;;;;;;;;;5069332;28;20020;-66
2022/08/13 07:23:36;;;;;;;6.50;1.73;;;;;;;;;;5069889;28;20662;-66
2022/08/13 07:26:02;;;;;;;2.47;1.58;;;;;;;;;;5066692;28;20008;-66
2022/08/13 07:28:28;;;;;;;9.02;2.40;;;;;;;;;;5069333;28;20024;-66
2022/08/13 07:30:53;;;;;;;3.70;1.70;;;;;;;;;;5065592;28;20040;-66
2022/08/13 07:33:19;;;;;;;5.38;1.80;;;;;;;;;;5075300;28;20477;-66
2022/08/13 07:35:44;;;;;;;2.60;1.45;;;;;;;;;;5071077;28;20141;-66
2022/08/13 07:38:09;;;;;;;2.33;1.40;;;;;;;;;;5066398;28;20113;-66
2022/08/13 07:40:35;;;;;;;5.60;1.70;;;;;;;;;;5068139;28;20523;-66
2022/08/13 07:43:03;;;;;;;7.15;1.52;;;;;;;;;;5069598;28;20028;-66
2022/08/13 07:45:34;;;;;;;6.40;1.20;;;;;;;;;;5067640;28;20439;-66
2022/08/13 07:48:00;;;;;;;14.68;1.52;;;;;;;;;;5070571;28;20050;-66
2022/08/13 07:50:25;;;;;;;4.28;1.15;;;;;;;;;;5071355;28;20531;-66
2022/08/13 07:52:57;;;;;;;2.30;1.00;;;;;;;;;;5066556;28;20024;-66
2022/08/13 07:55:23;;;;;;;2.85;1.27;;;;;;;;;;5066781;28;20488;-66
2022/08/13 07:57:48;;;;;;;4.30;1.10;;;;;;;;;;5067538;28;20040;-66
2022/08/13 08:00:18;;;;;;;3.57;1.00;;;;;;;;;;5069685;28;20528;-66
2022/08/13 08:02:43;;;;;;;1.50;1.20;;;;;;;;;;5074702;28;20535;-65
2022/08/13 08:05:12;;;;;;;5.63;1.30;;;;;;;;;;5068119;28;20053;-67
2022/08/13 08:07:38;;;;;;;2.92;1.05;;;;;;;;;;5072908;28;20094;-67
2022/08/13 08:10:04;;;;;;;1.58;1.00;;;;;;;;;;5069698;28;20036;-65
2022/08/13 08:12:32;;;;;;;1.27;0.80;;;;;;;;;;5064901;28;20498;-66
2022/08/13 08:14:59;;;;;;;3.78;1.17;;;;;;;;;;5066227;28;20030;-67
2022/08/13 08:17:26;;;;;;;1.77;1.10;;;;;;;;;;5067204;28;20017;-67
2022/08/13 08:19:52;;;;;;;1.40;0.90;;;;;;;;;;5070125;28;20103;-66
2022/08/13 08:22:18;;;;;;;6.88;1.08;;;;;;;;;;5075848;28;20032;-67
2022/08/13 08:24:48;;;;;;;5.82;0.98;;;;;;;;;;5077909;28;20020;-67
2022/08/13 08:27:16;;;;;;;3.92;1.00;;;;;;;;;;5061361;28;20412;-67
2022/08/13 08:29:41;;;;;;;4.45;1.85;;;;;;;;;;5067677;28;20032;-67
2022/08/13 08:32:08;;;;;;;5.80;1.10;;;;;;;;;;5064883;28;20028;-66
2022/08/13 08:34:34;;;;;;;1.88;1.10;;;;;;;;;;5068227;28;20281;-66
2022/08/13 08:36:59;;;;;;;1.23;1.10;;;;;;;;;;5073368;28;20031;-66
2022/08/13 08:44:57;;;;;;;7.72;1.27;;;;;;;;;;5061567;28;20031;-66
2022/08/13 08:47:27;;;;;;;1.85;0.90;;;;;;;;;;5071605;28;20030;-65
2022/08/13 08:49:53;;;;;;;1.92;0.73;;;;;;;;;;5065607;28;20031;-66
2022/08/13 08:52:18;;;;;;;4.53;0.90;;;;;;;;;;5067585;28;20465;-65
2022/08/13 08:54:45;;;;;;;4.38;1.08;;;;;;;;;;5068375;28;20023;-66
2022/08/13 08:57:11;;;;;;;2.90;1.10;;;;;;;;;;5050559;28;20166;-65
2022/08/13 08:59:39;;;;;;;3.60;1.10;;;;;;;;;;5063606;28;20099;-66
2022/08/13 09:02:16;;;;;;;1.95;1.25;;;;;;;;;;5066069;28;20020;-66
2022/08/13 09:04:41;;;;;;;4.95;1.10;;;;;;;;;;5065965;28;20033;-65
2022/08/13 09:07:08;;;;;;;2.28;0.90;;;;;;;;;;5064299;28;20039;-66
2022/08/13 09:09:34;;;;;;;1.52;1.00;;;;;;;;;;5067035;28;20024;-65
2022/08/13 09:12:00;;;;;;;9.38;1.35;;;;;;;;;;5068802;28;20135;-65
2022/08/13 09:14:26;;;;;;;3.53;1.42;;;;;;;;;;5069353;28;20025;-66
2022/08/13 09:16:55;;;;;;;2.88;1.10;;;;;;;;;;5069407;28;20481;-65
2022/08/13 09:19:23;;;;;;;2.93;1.20;;;;;;;;;;5064081;28;20150;-65
2022/08/13 09:21:49;;;;;;;3.95;0.82;;;;;;;;;;5065771;28;20319;-66
2022/08/13 09:24:15;;;;;;;2.47;0.93;;;;;;;;;;5071015;28;20036;-65
2022/08/13 09:26:47;;;;;;;1.45;0.98;;;;;;;;;;5062318;28;20020;-64
2022/08/13 09:29:14;;;;;;;1.77;0.85;;;;;;;;;;5069787;28;20394;-65
2022/08/13 09:31:44;;;;;;;5.25;0.95;;;;;;;;;;5077716;28;20047;-66
2022/08/13 09:34:09;;;;;;;3.03;1.60;;;;;;;;;;5071398;28;20107;-66
2022/08/13 09:36:36;;;;;;;5.38;1.20;;;;;;;;;;5072879;28;20096;-66
2022/08/13 09:39:02;;;;;;;1.33;0.90;;;;;;;;;;5068774;28;20024;-65
2022/08/13 09:41:32;;;;;;;1.75;0.93;;;;;;;;;;5074533;28;20735;-66
2022/08/13 09:43:57;;;;;;;2.80;1.27;;;;;;;;;;5070652;28;20431;-66
2022/08/13 09:46:23;;;;;;;8.23;1.30;;;;;;;;;;5077778;28;20527;-65
2022/08/13 09:48:51;;;;;;;1.33;0.90;;;;;;;;;;5073943;28;20598;-67
2022/08/13 09:51:16;;;;;;;1.98;1.08;;;;;;;;;;5066282;28;20100;-66
2022/08/13 09:53:46;;;;;;;4.88;1.10;;;;;;;;;;5068855;28;20119;-66
2022/08/13 09:56:12;;;;;;;4.68;1.42;;;;;;;;;;5069262;28;20662;-65
2022/08/13 09:58:37;;;;;;;2.20;1.17;;;;;;;;;;5067179;28;20021;-66
2022/08/13 10:01:02;;;;;;;7.73;1.13;;;;;;;;;;5069419;28;20027;-66
2022/08/13 10:03:27;;;;;;;2.60;1.30;;;;;;;;;;5068133;28;20154;-66
2022/08/13 10:05:53;;;;;;;2.10;1.02;;;;;;;;;;5063818;28;20017;-66
2022/08/13 10:08:18;;;;;;;2.20;1.30;;;;;;;;;;5062188;28;20665;-66
2022/08/13 10:10:44;;;;;;;2.83;1.27;;;;;;;;;;5072762;28;20036;-66
2022/08/13 10:13:10;;;;;;;1.08;0.95;;;;;;;;;;5064417;28;20027;-66
2022/08/13 10:15:35;;;;;;;8.70;1.23;;;;;;;;;;5067802;28;20036;-66
2022/08/13 10:18:02;;;;;;;2.70;1.13;;;;;;;;;;5069321;28;20016;-65
2022/08/13 10:20:40;;;;;;;2.35;0.98;;;;;;;;;;5068635;28;20055;-66
2022/08/13 10:23:07;;;;;;;1.85;0.98;;;;;;;;;;5071981;28;20512;-66
2022/08/13 10:25:32;;;;;;;8.15;1.77;;;;;;;;;;5066795;28;20074;-65
2022/08/13 10:27:58;;;;;;;7.93;1.67;;;;;;;;;;5076403;28;20178;-65
2022/08/13 10:30:24;;;;;;;7.63;1.13;;;;;;;;;;5068290;28;20387;-66
2022/08/13 10:32:50;;;;;;;2.83;1.60;;;;;;;;;;5067676;28;20085;-65
2022/08/13 10:35:19;;;;;;;3.45;1.65;;;;;;;;;;5072229;28;20024;-66
2022/08/13 10:37:45;;;;;;;3.45;1.33;;;;;;;;;;5071695;28;20505;-66
2022/08/13 10:40:14;;;;;;;5.60;1.90;;;;;;;;;;5072972;28;20073;-65
2022/08/13 10:42:39;;;;;;;3.80;0.93;;;;;;;;;;5073541;28;20372;-66
2022/08/13 10:45:05;;;;;;;2.00;1.03;;;;;;;;;;5073008;28;20013;-67
2022/08/13 10:47:31;;;;;;;5.03;1.20;;;;;;;;;;5073052;28;20273;-66
2022/08/13 10:49:57;;;;;;;3.47;1.08;;;;;;;;;;5072750;28;20508;-66
2022/08/13 10:52:24;;;;;;;1.92;1.40;;;;;;;;;;5072553;28;20024;-67
2022/08/13 10:54:49;;;;;;;4.68;1.00;;;;;;;;;;5073167;28;20522;-66
2022/08/13 10:57:14;;;;;;;6.15;1.10;;;;;;;;;;5073292;28;20013;-66
2022/08/13 10:59:41;;;;;;;5.03;1.10;;;;;;;;;;5072781;28;20017;-66
2022/08/13 11:02:07;;;;;;;4.50;1.10;;;;;;;;;;5072409;28;20028;-66
2022/08/13 11:04:33;;;;;;;1.88;1.20;;;;;;;;;;5070514;28;20473;-66
2022/08/13 11:07:00;;;;;;;1.88;1.08;;;;;;;;;;5071159;28;20028;-66
2022/08/13 11:09:25;;;;;;;1.95;0.95;;;;;;;;;;5076179;28;20032;-66
2022/08/13 11:11:51;;;;;;;2.30;0.88;;;;;;;;;;5071574;28;20440;-66
2022/08/13 11:14:18;;;;;;;3.80;1.23;;;;;;;;;;5072176;28;20043;-67
2022/08/13 11:19:25;;;;;;;3.92;0.77;;;;;;;;;;5072994;28;20032;-65
2022/08/13 11:21:50;;;;;;;5.82;1.27;;;;;;;;;;5068889;28;20028;-67
2022/08/13 11:24:18;;;;;;;5.07;1.10;;;;;;;;;;5072810;28;20453;-66
2022/08/13 11:26:43;;;;;;;4.10;1.00;;;;;;;;;;5072484;28;20078;-67
2022/08/13 11:29:08;;;;;;;3.23;0.83;;;;;;;;;;5072332;28;20020;-66
2022/08/13 11:31:34;;;;;;;2.55;1.00;;;;;;;;;;5071316;28;20279;-66
2022/08/13 11:33:59;;;;;;;2.88;1.00;;;;;;;;;;5071576;28;20099;-66
2022/08/13 11:36:24;;;;;;;4.63;1.03;;;;;;;;;;5071251;28;20021;-66
2022/08/13 11:38:50;;;;;;;5.85;1.20;;;;;;;;;;5120009;22;20400;-69
2022/08/13 11:41:15;;;;;;;3.00;1.00;;;;;;;;;;5084410;28;20056;-68
2022/08/13 11:43:40;;;;;;;2.23;1.00;;;;;;;;;;5091916;28;20012;-67
2022/08/13 11:46:06;;;;;;;11.80;1.05;;;;;;;;;;5091883;28;20646;-67
2022/08/13 11:48:31;;;;;;;7.78;1.08;;;;;;;;;;5066794;28;20036;-68
2022/08/13 11:50:57;;;;;;;1.30;1.00;;;;;;;;;;5056177;28;20032;-68
2022/08/13 11:53:22;;;;;;;2.83;1.20;;;;;;;;;;5070822;28;20020;-68
2022/08/13 11:55:48;;;;;;;2.40;0.88;;;;;;;;;;5071117;28;20021;-67
2022/08/13 11:58:13;;;;;;;1.48;0.90;;;;;;;;;;5070803;28;20063;-68
2022/08/13 12:00:39;;;;;;;2.92;1.17;;;;;;;;;;5070204;28;20051;-67
2022/08/13 12:03:05;;;;;;;3.63;1.15;;;;;;;;;;5070899;28;20046;-67
2022/08/13 12:05:30;;;;;;;1.58;1.00;;;;;;;;;;5057522;28;20021;-67
2022/08/13 12:07:56;;;;;;;2.58;0.98;;;;;;;;;;5050335;28;20496;-66
2022/08/13 12:10:21;;;;;;;1.45;1.05;;;;;;;;;;5050463;28;20055;-67
2022/08/13 12:12:47;;;;;;;3.92;1.10;;;;;;;;;;5043623;28;20025;-67
2022/08/13 12:15:13;;;;;;;2.00;1.20;;;;;;;;;;5065702;28;20516;-67
2022/08/13 12:17:42;;;;;;;3.05;1.20;;;;;;;;;;5062487;28;20020;-67
2022/08/13 12:20:08;;;;;;;2.85;0.95;;;;;;;;;;5059514;28;20024;-67
2022/08/13 12:22:34;;;;;;;1.20;0.77;;;;;;;;;;5061234;28;20029;-67
2022/08/13 12:24:59;;;;;;;4.00;1.50;;;;;;;;;;5068219;28;20081;-68
2022/08/13 12:27:24;;;;;;;5.33;1.10;;;;;;;;;;5064948;28;20387;-68
2022/08/13 12:29:49;;;;;;;2.30;1.20;;;;;;;;;;5057139;28;20029;-66
2022/08/13 12:32:15;;;;;;;3.88;1.20;;;;;;;;;;5066805;28;20063;-68
2022/08/13 12:34:40;;;;;;;4.85;1.17;;;;;;;;;;5067358;28;20012;-66
2022/08/13 12:37:05;;;;;;;1.27;1.00;;;;;;;;;;5050572;28;20016;-66
2022/08/13 12:39:30;;;;;;;11.43;1.20;;;;;;;;;;5049885;28;20074;-69
2022/08/13 12:41:56;;;;;;;2.00;1.03;;;;;;;;;;5050318;28;20040;-67
2022/08/13 12:44:21;;;;;;;1.30;1.00;;;;;;;;;;5068683;28;20050;-69
2022/08/13 12:46:46;;;;;;;1.85;0.90;;;;;;;;;;5068167;28;20071;-66
2022/08/13 12:49:11;;;;;;;4.07;1.23;;;;;;;;;;5069948;28;20028;-67
2022/08/13 12:51:37;;;;;;;2.47;1.30;;;;;;;;;;5070091;28;20294;-66
2022/08/13 12:54:02;;;;;;;1.73;0.93;;;;;;;;;;5068013;28;20012;-69
2022/08/13 12:56:28;;;;;;;3.45;1.05;;;;;;;;;;5070189;28;20247;-68
2022/08/13 12:58:53;;;;;;;1.60;1.20;;;;;;;;;;5069821;28;20104;-66
2022/08/13 13:01:18;;;;;;;3.43;1.27;;;;;;;;;;5070146;28;20408;-66
2022/08/13 13:03:43;;;;;;;2.47;0.97;;;;;;;;;;5065378;28;20033;-69
2022/08/13 13:06:09;;;;;;;1.60;1.30;;;;;;;;;;5074125;28;20056;-66
2022/08/13 13:08:34;;;;;;;1.83;1.13;;;;;;;;;;5072828;28;20269;-70
2022/08/13 13:11:02;;;;;;;1.47;1.10;;;;;;;;;;5069095;28;20494;-66
2022/08/13 13:13:27;;;;;;;3.97;1.30;;;;;;;;;;5071791;28;20115;-66
2022/08/13 13:15:53;;;;;;;1.87;1.00;;;;;;;;;;5071445;28;20096;-68
2022/08/13 13:18:20;;;;;;;7.47;1.30;;;;;;;;;;5066277;28;20430;-66
2022/08/13 13:20:45;;;;;;;1.23;1.00;;;;;;;;;;5073852;28;20536;-66
2022/08/13 13:23:12;;;;;;;1.00;0.90;;;;;;;;;;5074387;28;20104;-66
2022/08/13 13:25:37;;;;;;;2.17;1.20;;;;;;;;;;5073937;28;20024;-66
2022/08/13 13:28:03;;;;;;;1.58;0.90;;;;;;;;;;5073755;28;20021;-70
2022/08/13 13:30:29;;;;;;;5.65;1.30;;;;;;;;;;5070952;28;20016;-66
2022/08/13 13:32:55;;;;;;;6.73;2.60;;;;;;;;;;5072303;28;20034;-68
2022/08/13 13:35:21;;;;;;;2.45;1.95;;;;;;;;;;5071167;28;20031;-66
2022/08/13 13:37:46;;;;;;;1.30;0.87;;;;;;;;;;5073259;28;20025;-68
2022/08/13 13:40:12;;;;;;;1.63;0.77;;;;;;;;;;5065269;28;20294;-67
2022/08/13 13:42:37;;;;;;;5.80;1.40;;;;;;;;;;5068783;28;20028;-67
2022/08/13 13:45:03;;;;;;;1.90;1.17;;;;;;;;;;5071422;28;20357;-67
2022/08/13 13:47:31;;;;;;;3.88;1.00;;;;;;;;;;5070705;28;20895;-65
2022/08/13 13:49:56;;;;;;;4.20;1.15;;;;;;;;;;5073307;28;20027;-66
2022/08/13 13:52:21;;;;;;;3.37;1.20;;;;;;;;;;5071521;28;20036;-67
2022/08/13 13:54:49;;;;;;;1.30;1.20;;;;;;;;;;5070989;28;20089;-66
2022/08/13 13:57:14;;;;;;;0.88;0.70;;;;;;;;;;5066937;28;20048;-66
2022/08/13 13:59:40;;;;;;;1.13;0.80;;;;;;;;;;5072462;28;20017;-67
2022/08/13 14:02:05;;;;;;;1.47;0.90;;;;;;;;;;5068024;28;20476;-66
2022/08/13 14:04:30;;;;;;;4.53;1.00;;;;;;;;;;5068209;28;20024;-67
2022/08/13 14:07:02;;;;;;;4.03;1.27;;;;;;;;;;5071883;28;20028;-67
2022/08/13 14:09:28;;;;;;;1.17;1.05;;;;;;;;;;5064067;28;20169;-67
2022/08/13 14:11:53;;;;;;;1.35;0.90;;;;;;;;;;5052973;28;20547;-67
2022/08/13 14:14:18;;;;;;;3.53;1.30;;;;;;;;;;5052327;28;20055;-67
2022/08/13 14:16:46;;;;;;;2.17;1.20;;;;;;;;;;5071036;28;20050;-68
2022/08/13 14:19:11;;;;;;;4.00;0.90;;;;;;;;;;5072763;28;20354;-68
2022/08/13 14:21:38;;;;;;;5.00;0.98;;;;;;;;;;5072483;28;20069;-67
2022/08/13 14:24:03;;;;;;;1.58;1.10;;;;;;;;;;5067887;28;20028;-67
2022/08/13 14:26:30;;;;;;;2.05;0.95;;;;;;;;;;5065663;28;20029;-67
2022/08/13 14:28:55;;;;;;;3.65;1.10;;;;;;;;;;5068370;28;20029;-67
2022/08/13 14:31:20;;;;;;;2.08;1.10;;;;;;;;;;5062829;28;20040;-66
2022/08/13 14:33:45;;;;;;;9.93;1.10;;;;;;;;;;5064771;28;20435;-66
2022/08/13 14:36:11;;;;;;;4.33;1.37;;;;;;;;;;5068254;28;20658;-66
2022/08/13 14:38:36;;;;;;;1.65;0.90;;;;;;;;;;5067091;28;20028;-66
2022/08/13 14:41:01;;;;;;;3.10;0.70;;;;;;;;;;5071067;28;20345;-67
2022/08/13 14:43:27;;;;;;;3.83;1.10;;;;;;;;;;5071770;28;20016;-66
2022/08/13 14:45:54;;;;;;;5.53;1.13;;;;;;;;;;5070480;28;20020;-67
2022/08/13 14:48:21;;;;;;;2.95;0.95;;;;;;;;;;5052357;28;20028;-68
2022/08/13 14:50:49;;;;;;;1.50;1.00;;;;;;;;;;5070051;28;20033;-66
2022/08/13 14:53:17;;;;;;;4.18;1.10;;;;;;;;;;5069992;28;20677;-67
2022/08/13 14:55:47;;;;;;;3.58;1.27;;;;;;;;;;5071591;28;20028;-66
2022/08/13 14:58:15;;;;;;;9.23;0.90;;;;;;;;;;5072145;28;20043;-67